Ana Sayfa
METAR-TAF:

METAR-TAF

Havaalanları :

Cairns, Avustralya

Enlem: 16-53S, Boylam: 145-45E, yükseklik: 3 m

Güncel hava durumu gözlemi

Rapor saat 04:00 UTC de 25 dakika önce yapıldı.
Rüzgar kuzeydoğudan 9 kt
Sıcaklık 30°C
Nem 62%
Basınç 1011 hPa
Görüş mesafesi 10 km veya daha fazla
3500 ft yükseklikte parçalı bulutlu
21000 ft yükseklikte parçalı çok bulutlu

METAR: YBCS 230400Z 05009KT 9999 SCT035 BKN210 30/22 Q1011 NOSIG

Saat: 14:25 (04:25 UTC)

Tahmin

Rapor saat 23:19 UTC de 5 saat ve 6 dakika önce yapıldı.
Ayın 23'si saat 00 UTC'den ayın 23'si saat 24 UTC'ye kadar geçerli Tahmin
Rüzgar kuzeydoğudan 10 kt
Görüş mesafesi 10 km veya daha fazla
3000 ft yükseklikte az bulutlu
Ayın 23'si saat 0800 UTC'den
Rüzgar güney/güneydoğudan 6 kt
Görüş mesafesi 10 km veya daha fazla
2500 ft yükseklikte az bulutlu
3500 ft yükseklikte parçalı bulutlu

TAF: YBCS 222319Z 2300/2324 04010KT 9999 FEW030 FM230800 16006KT 9999 FEW025 SCT035

4.000'den fazla havaalanı için hava durumu gözlemleri ve tahminleri (METAR ve TAF raporları).

Kullanılabilir istasyonlar harita üzerinde sarı ve kırmızı noktalarla gösterilir.

İstasyonun adını görmek için fareyi noktanın üzerinde gezdirin.

Sonrasında hava gözlem ve tahminlerini görmek için tıklayın.

Haritayı değiştirmek için: yaklaştırmak için siyah artı işaretli yeşil düğmeye ve uzaklaştırmak için de eksi işaretli düğmeye hızla tıklayın; bitişik haritalar için yeşil okları kullanın.


METAR-TAF: